SLCO2: Lee Creek At Short, OK

Data processed at Tue May 21 2019 23:50


All information presented herein is the property of the government of the United States of America and may be revised or deleted at any time without prior notice.
Dissemination of this information without the expressed written consent of the Public Affairs Office, Tulsa District U.S. Army Corps of Engineers is strictly prohibited.
These data are gathered electronically and, as presented, have not undergone any form of quality control. These data are not guaranteed to be valid or correct.
Go to home page.
Go to station list.
Go to home page.

Downstream station:


Previous Day
Next Day
Current Day
    
SHEF ID:       SLCO2     Lee Creek near Short, OK
STATION TYPE:  

               PRECIP     STAGE  RIV-FLOW  BAT-LOAD
                   in        ft       cfs      volt
              Ccp-Rev   Ccp-Rev   Ccp-Rev   Ccp-Rev
(US/Central)
05/21 00:00      0.00      3.02       145     12.89
05/21 01:00      0.00      3.01       143     12.89
05/21 02:00      0.00      3.00       141     12.81
05/21 03:00      0.00      2.98       136     12.81
05/21 04:00      0.00      2.97       134     12.81
05/21 05:00      0.00      2.96       132     12.81
05/21 06:00      0.00      2.96       132     12.81
05/21 07:00      0.00      2.96       132     12.81
05/21 08:00      0.00      2.96       132     12.89
05/21 09:00      0.00      2.97       134     12.97
05/21 10:00      0.00      2.97       134     12.81
05/21 11:00      0.48      3.03       148     12.81
05/21 12:00      0.29      3.06       155     12.81
05/21 13:00      0.05      3.08       160     13.05
05/21 14:00      0.06      3.15       178     13.05
05/21 15:00      0.09      3.26       209     12.89
05/21 16:00      0.03      3.37       246     13.05
05/21 17:00      0.00      3.48       287     13.29
05/21 18:00      0.00      3.54       312     13.29
05/21 19:00      0.00      3.58       329     13.13
05/21 20:00      0.00      3.57       325     12.97
05/21 21:00      0.00      3.57       325     12.89
05/21 22:00      0.00      3.57       325     12.81
05/21 23:00      0.00      3.59       334     12.73